Time;durP1;ratioP1;P1;durP2;ratioP2;P2;SDS_P1;SDS_P2;PMS_P1;PMS_P2;Temp;Humidity;BMP_temperature;BMP_pressure;BME280_temperature;BME280_humidity;BME280_pressure;Samples;Min_cycle;Max_cycle;Signal;HPM_P1;HPM_P2
2022/12/04 00:01:26;;;;;;;18.42;8.68;;;3.30;84.30;;;;;;4994481;28;20057;-65
2022/12/04 00:04:01;;;;;;;17.33;8.48;;;3.30;84.20;;;;;;4996818;28;20073;-65
2022/12/04 00:06:29;;;;;;;17.75;8.27;;;3.30;84.30;;;;;;4986803;28;20046;-65
2022/12/04 00:08:57;;;;;;;19.85;9.27;;;3.20;84.30;;;;;;4997814;28;20053;-64
2022/12/04 00:11:26;;;;;;;16.77;7.93;;;3.30;84.20;;;;;;4988515;28;20052;-65
2022/12/04 00:13:54;;;;;;;18.40;8.48;;;3.20;84.20;;;;;;5003701;28;20625;-65
2022/12/04 00:16:24;;;;;;;19.55;8.48;;;3.30;84.20;;;;;;4999840;28;20034;-65
2022/12/04 00:18:52;;;;;;;18.25;8.45;;;3.30;84.20;;;;;;4990306;28;20077;-65
2022/12/04 00:21:21;;;;;;;18.98;8.52;;;3.30;84.20;;;;;;5006495;28;20053;-65
2022/12/04 00:23:49;;;;;;;16.92;8.35;;;3.30;84.30;;;;;;5007821;28;20049;-65
2022/12/04 00:26:17;;;;;;;17.38;8.27;;;3.30;84.30;;;;;;5006009;28;20248;-65
2022/12/04 00:28:45;;;;;;;15.48;7.63;;;3.30;84.30;;;;;;5007702;28;20145;-65
2022/12/04 00:31:14;;;;;;;14.77;8.00;;;3.30;84.50;;;;;;5007545;28;20137;-66
2022/12/04 00:33:41;;;;;;;18.23;8.65;;;3.30;84.50;;;;;;5008947;28;20042;-66
2022/12/04 00:36:10;;;;;;;15.23;7.43;;;3.30;84.40;;;;;;5007758;28;20061;-65
2022/12/04 00:38:39;;;;;;;16.83;8.25;;;3.30;84.60;;;;;;5007821;28;20070;-66
2022/12/04 00:41:08;;;;;;;14.75;7.82;;;3.30;84.60;;;;;;5006137;28;20100;-65
2022/12/04 00:43:35;;;;;;;15.60;7.97;;;3.40;84.50;;;;;;5008595;28;20065;-65
2022/12/04 00:46:02;;;;;;;16.38;7.85;;;3.30;84.50;;;;;;5007054;28;20077;-66
2022/12/04 00:48:29;;;;;;;15.55;8.43;;;3.30;84.30;;;;;;5006835;28;20049;-66
2022/12/04 00:51:00;;;;;;;17.20;8.07;;;3.30;84.40;;;;;;4999550;28;20074;-66
2022/12/04 00:53:28;;;;;;;15.98;7.13;;;3.30;84.30;;;;;;5008573;28;20137;-65
2022/12/04 00:55:56;;;;;;;15.02;7.97;;;3.40;84.40;;;;;;5005769;28;20103;-65
2022/12/04 00:58:24;;;;;;;15.43;7.22;;;3.30;84.30;;;;;;4978295;28;20134;-65
2022/12/04 01:00:51;;;;;;;17.10;7.88;;;3.30;84.30;;;;;;4998568;28;20058;-66
2022/12/04 01:03:18;;;;;;;14.05;6.85;;;3.30;84.20;;;;;;5003693;28;20105;-65
2022/12/04 01:05:45;;;;;;;14.32;6.38;;;3.30;83.90;;;;;;4995113;28;20085;-65
2022/12/04 01:08:13;;;;;;;14.77;6.80;;;3.20;83.90;;;;;;4999867;28;20058;-66
2022/12/04 01:10:41;;;;;;;14.38;6.63;;;3.30;83.80;;;;;;4995087;28;20057;-66
2022/12/04 01:13:10;;;;;;;14.98;7.07;;;3.30;83.90;;;;;;5006048;28;20050;-66
2022/12/04 01:15:39;;;;;;;15.07;6.82;;;3.30;84.10;;;;;;4999475;28;20054;-65
2022/12/04 01:18:06;;;;;;;14.82;7.18;;;3.30;84.20;;;;;;4997249;28;20050;-65
2022/12/04 01:20:33;;;;;;;14.75;7.45;;;3.30;84.20;;;;;;4997513;28;20141;-66
2022/12/04 01:23:00;;;;;;;15.20;6.97;;;3.30;84.30;;;;;;4985920;28;20047;-65
2022/12/04 01:25:28;;;;;;;19.13;8.02;;;3.30;84.10;;;;;;5007632;28;20033;-66
2022/12/04 01:27:55;;;;;;;15.88;7.80;;;3.30;84.00;;;;;;5004214;28;20109;-65
2022/12/04 01:30:23;;;;;;;17.02;8.35;;;3.30;84.10;;;;;;5001453;28;20512;-63
2022/12/04 01:32:50;;;;;;;18.65;8.38;;;3.30;83.90;;;;;;4993424;28;20049;-64
2022/12/04 01:35:18;;;;;;;17.45;7.90;;;3.30;84.10;;;;;;5009583;28;20116;-65
2022/12/04 01:37:44;;;;;;;16.45;8.10;;;3.30;84.00;;;;;;5008459;28;20500;-65
2022/12/04 01:40:14;;;;;;;15.07;7.72;;;3.30;84.20;;;;;;5009585;28;20049;-66
2022/12/04 01:42:41;;;;;;;19.80;9.38;;;3.30;84.20;;;;;;5004298;28;20049;-66
2022/12/04 01:45:41;;;;;;;17.27;8.40;;;3.30;84.10;;;;;;5002823;28;20051;-65
2022/12/04 01:48:22;;;;;;;15.20;7.75;;;3.30;84.30;;;;;;5001823;28;20411;-65
2022/12/04 01:50:50;;;;;;;;;;;3.30;84.30;;;;;;5005104;28;20042;-66
2022/12/04 01:53:19;;;;;;;14.70;6.75;;;3.30;84.30;;;;;;5008909;28;19921;-65
2022/12/04 01:55:47;;;;;;;13.70;7.10;;;3.20;84.20;;;;;;5006581;28;20076;-65
2022/12/04 01:58:17;;;;;;;14.13;6.60;;;3.20;84.00;;;;;;5011122;28;20505;-66
2022/12/04 02:00:45;;;;;;;12.40;6.68;;;3.20;84.20;;;;;;5007487;28;20049;-66
2022/12/04 02:03:13;;;;;;;14.00;6.90;;;3.20;84.00;;;;;;5009597;28;20046;-65
2022/12/04 02:05:41;;;;;;;13.18;6.40;;;3.20;84.20;;;;;;5006262;28;20049;-65
2022/12/04 02:08:09;;;;;;;13.88;7.22;;;3.30;84.20;;;;;;5008401;28;20092;-65
2022/12/04 02:10:49;;;;;;;12.75;6.68;;;3.30;84.10;;;;;;4999492;28;20560;-66
2022/12/04 02:13:26;;;;;;;12.90;6.57;;;3.30;84.10;;;;;;5008727;28;20097;-65
2022/12/04 02:15:57;;;;;;;15.93;8.10;;;3.30;84.00;;;;;;5007951;28;20698;-63
2022/12/04 02:18:31;;;;;;;14.48;7.43;;;3.30;83.90;;;;;;5008173;28;20050;-64
2022/12/04 02:21:06;;;;;;;15.90;7.53;;;3.20;84.10;;;;;;5011247;28;20141;-64
2022/12/04 02:24:00;;;;;;;15.95;7.68;;;3.30;84.20;;;;;;5009508;28;20097;-64
2022/12/04 02:26:40;;;;;;;12.98;6.93;;;3.30;84.20;;;;;;4990831;28;20157;-62
2022/12/04 02:29:15;;;;;;;14.60;6.95;;;3.30;84.10;;;;;;5010176;28;20212;-64
2022/12/04 02:31:51;;;;;;;15.27;7.32;;;3.30;84.10;;;;;;5005461;28;20057;-65
2022/12/04 02:34:23;;;;;;;14.13;6.75;;;3.30;84.10;;;;;;5008783;28;20570;-63
2022/12/04 02:36:55;;;;;;;12.93;6.63;;;3.30;84.10;;;;;;5011339;28;20057;-64
2022/12/04 02:39:28;;;;;;;12.50;6.18;;;3.30;84.20;;;;;;5010004;28;20192;-64
2022/12/04 02:41:59;;;;;;;14.68;6.80;;;3.30;84.10;;;;;;5005244;28;20051;-64
2022/12/04 02:44:30;;;;;;;13.30;6.13;;;3.30;84.10;;;;;;5009706;28;20048;-64
2022/12/04 02:47:01;;;;;;;12.57;6.13;;;3.30;84.10;;;;;;5011346;28;20637;-64
2022/12/04 02:49:33;;;;;;;13.15;6.20;;;3.20;84.30;;;;;;5004789;28;20053;-64
2022/12/04 02:52:00;;;;;;;;;;;3.20;84.20;;;;;;5003942;28;20132;-64
2022/12/04 02:54:34;;;;;;;12.68;7.10;;;3.30;84.20;;;;;;5006593;28;19944;-63
2022/12/04 02:57:03;;;;;;;15.73;7.10;;;3.30;84.00;;;;;;5000953;28;20045;-63
2022/12/04 02:59:35;;;;;;;13.88;7.07;;;3.30;84.00;;;;;;5002430;28;20136;-63
2022/12/04 03:02:08;;;;;;;16.35;7.18;;;3.30;84.10;;;;;;5003469;28;20069;-70
2022/12/04 03:04:38;;;;;;;15.88;7.05;;;3.30;84.00;;;;;;5009138;28;20038;-70
2022/12/04 03:07:11;;;;;;;16.27;7.90;;;3.30;84.00;;;;;;5003866;28;20047;-70
2022/12/04 03:09:44;;;;;;;16.38;7.93;;;3.30;84.00;;;;;;4998660;28;20116;-69
2022/12/04 03:12:20;;;;;;;16.40;7.95;;;3.30;83.90;;;;;;5001438;28;20046;-69
2022/12/04 03:14:55;;;;;;;16.33;8.32;;;3.30;83.90;;;;;;5000848;28;20046;-69
2022/12/04 03:17:25;;;;;;;16.95;8.27;;;3.30;84.00;;;;;;5000293;28;20127;-69
2022/12/04 03:19:57;;;;;;;15.63;7.28;;;3.30;84.10;;;;;;4993545;28;20123;-70
2022/12/04 03:22:26;;;;;;;18.38;8.65;;;3.20;84.10;;;;;;5005477;28;20081;-70
2022/12/04 03:24:54;;;;;;;17.58;8.38;;;3.30;84.10;;;;;;4994494;28;20697;-70
2022/12/04 03:27:29;;;;;;;16.50;7.93;;;3.30;84.20;;;;;;5003340;28;20390;-70
2022/12/04 03:30:02;;;;;;;15.93;7.82;;;3.30;84.20;;;;;;5001646;28;20058;-69
2022/12/04 03:32:36;;;;;;;16.33;7.57;;;3.30;84.30;;;;;;5001022;28;20038;-70
2022/12/04 03:35:08;;;;;;;14.40;6.80;;;3.30;84.30;;;;;;5002678;28;20481;-69
2022/12/04 03:37:41;;;;;;;16.38;7.60;;;3.30;84.30;;;;;;5001462;28;20130;-69
2022/12/04 03:40:15;;;;;;;15.38;7.45;;;3.30;84.50;;;;;;5010177;28;20120;-70
2022/12/04 03:42:46;;;;;;;16.23;7.53;;;3.30;84.40;;;;;;4987218;28;20750;-69
2022/12/04 03:45:21;;;;;;;15.13;7.13;;;3.30;84.40;;;;;;5006917;28;20163;-68
2022/12/04 03:47:54;;;;;;;15.35;7.38;;;3.30;84.50;;;;;;5005742;28;20034;-69
2022/12/04 03:50:29;;;;;;;16.52;7.32;;;3.30;84.60;;;;;;5006507;28;20428;-70
2022/12/04 03:53:03;;;;;;;16.35;6.47;;;3.30;84.60;;;;;;5006156;28;20073;-69
2022/12/04 03:55:36;;;;;;;14.25;6.63;;;3.30;84.60;;;;;;5007763;28;20045;-70
2022/12/04 03:58:07;;;;;;;17.70;6.80;;;3.30;84.60;;;;;;5007918;28;20046;-69
2022/12/04 04:00:40;;;;;;;13.65;6.85;;;3.40;84.40;;;;;;5009422;28;20141;-70
2022/12/04 04:03:11;;;;;;;15.90;7.20;;;3.30;84.40;;;;;;5010108;28;20088;-70
2022/12/04 04:05:42;;;;;;;14.43;6.68;;;3.30;84.40;;;;;;4998223;28;20129;-70
2022/12/04 04:08:32;;;;;;;16.77;7.40;;;3.30;84.40;;;;;;5006042;28;20053;-69
2022/12/04 04:11:05;;;;;;;13.73;6.30;;;3.40;84.30;;;;;;5008929;28;20045;-71
2022/12/04 04:24:56;;;;;;;14.07;7.03;;;3.30;84.20;;;;;;4971539;28;20084;-70
2022/12/04 04:27:23;;;;;;;16.88;8.02;;;3.30;84.10;;;;;;5009462;28;20050;-70
2022/12/04 04:29:52;;;;;;;15.32;7.22;;;3.30;84.00;;;;;;5007294;28;20061;-70
2022/12/04 04:32:30;;;;;;;13.47;7.33;;;3.30;84.00;;;;;;4994474;28;20127;-70
2022/12/04 04:35:05;;;;;;;16.80;7.68;;;3.30;83.80;;;;;;4997383;28;20555;-70
2022/12/04 04:37:40;;;;;;;13.70;7.25;;;3.30;83.90;;;;;;5007736;28;20053;-71
2022/12/04 04:40:13;;;;;;;15.93;7.00;;;3.30;83.80;;;;;;5006355;28;20061;-70
2022/12/04 04:42:47;;;;;;;16.10;7.97;;;3.30;83.90;;;;;;5002966;28;20148;-71
2022/12/04 04:45:20;;;;;;;14.65;7.28;;;3.30;83.90;;;;;;5007981;28;20500;-69
2022/12/04 04:47:53;;;;;;;13.57;6.88;;;3.30;84.00;;;;;;5005035;28;20119;-71
2022/12/04 04:50:21;;;;;;;15.80;7.22;;;3.30;84.10;;;;;;5002728;28;20089;-71
2022/12/04 04:52:52;;;;;;;14.82;7.55;;;3.30;84.10;;;;;;5005215;28;20053;-71
2022/12/04 04:55:20;;;;;;;15.90;7.82;;;3.30;84.20;;;;;;5005499;28;20124;-71
2022/12/04 04:57:48;;;;;;;13.18;7.30;;;3.30;84.20;;;;;;5003917;28;20041;-71
2022/12/04 05:00:18;;;;;;;17.02;8.43;;;3.30;84.20;;;;;;5003217;28;20110;-71
2022/12/04 05:02:47;;;;;;;16.77;8.18;;;3.30;84.10;;;;;;4998102;28;20137;-72
2022/12/04 05:05:16;;;;;;;16.13;7.72;;;3.30;84.20;;;;;;4995419;28;20492;-72
2022/12/04 05:07:43;;;;;;;17.05;8.20;;;3.20;84.20;;;;;;5002325;28;20050;-70
2022/12/04 05:10:11;;;;;;;16.55;7.93;;;3.30;84.20;;;;;;5008777;28;20069;-70
2022/12/04 05:12:39;;;;;;;20.63;8.73;;;3.20;84.20;;;;;;5008475;28;20062;-71
2022/12/04 05:15:07;;;;;;;17.95;8.02;;;3.20;84.30;;;;;;5006437;28;20041;-72
2022/12/04 05:17:35;;;;;;;18.90;8.25;;;3.20;84.40;;;;;;5006534;28;20097;-72
2022/12/04 05:20:02;;;;;;;16.35;7.60;;;3.20;84.40;;;;;;5009049;28;20076;-70
2022/12/04 05:22:32;;;;;;;16.98;7.60;;;3.20;84.30;;;;;;5002475;28;20053;-69
2022/12/04 05:24:59;;;;;;;15.38;8.02;;;3.30;84.30;;;;;;5003374;28;20081;-69
2022/12/04 05:27:27;;;;;;;14.35;7.22;;;3.20;84.20;;;;;;5007004;28;20045;-70
2022/12/04 05:29:56;;;;;;;16.95;8.02;;;3.30;84.30;;;;;;5005003;28;20052;-69
2022/12/04 05:32:24;;;;;;;14.90;8.07;;;3.20;84.30;;;;;;5003579;28;20050;-70
2022/12/04 05:34:53;;;;;;;15.38;7.82;;;3.20;84.20;;;;;;5004559;28;20463;-69
2022/12/04 05:37:20;;;;;;;16.50;8.20;;;3.20;84.20;;;;;;5004614;28;20084;-69
2022/12/04 05:39:48;;;;;;;15.60;7.00;;;3.20;84.20;;;;;;4998416;28;20045;-70
2022/12/04 05:42:15;;;;;;;17.45;8.00;;;3.20;84.20;;;;;;4996163;28;20045;-69
2022/12/04 05:44:42;;;;;;;16.58;7.57;;;3.10;84.20;;;;;;4975810;28;20046;-70
2022/12/04 05:47:10;;;;;;;15.45;7.53;;;3.20;84.20;;;;;;5001899;28;20053;-70
2022/12/04 05:49:37;;;;;;;17.35;7.32;;;3.20;84.10;;;;;;4984213;28;20160;-70
2022/12/04 05:52:06;;;;;;;16.35;7.88;;;3.20;84.10;;;;;;5005352;28;20089;-70
2022/12/04 05:54:33;;;;;;;17.23;8.05;;;3.20;84.20;;;;;;5003381;28;20060;-70
2022/12/04 05:57:01;;;;;;;15.95;7.88;;;3.20;84.20;;;;;;5003894;28;20087;-70
2022/12/04 05:59:29;;;;;;;15.25;8.13;;;3.20;84.10;;;;;;5004149;28;20072;-70
2022/12/04 06:01:56;;;;;;;16.83;7.75;;;3.20;84.10;;;;;;5006346;28;20069;-70
2022/12/04 06:04:23;;;;;;;15.52;6.82;;;3.10;84.00;;;;;;5002845;28;20595;-70
2022/12/04 06:06:50;;;;;;;14.73;7.40;;;3.10;83.90;;;;;;5005127;28;20069;-70
2022/12/04 06:09:17;;;;;;;15.25;7.78;;;3.10;84.00;;;;;;5002475;28;20096;-70
2022/12/04 06:11:44;;;;;;;13.27;6.55;;;3.10;84.10;;;;;;4993304;28;20043;-69
2022/12/04 06:14:15;;;;;;;12.68;7.10;;;3.10;84.10;;;;;;4974870;28;20058;-70
2022/12/04 06:16:44;;;;;;;16.65;7.38;;;3.10;84.00;;;;;;4981228;28;20497;-70
2022/12/04 06:19:14;;;;;;;19.85;8.15;;;3.10;84.10;;;;;;4982865;28;20038;-69
2022/12/04 06:21:42;;;;;;;16.25;8.05;;;3.20;84.10;;;;;;4977794;28;20046;-69
2022/12/04 06:24:13;;;;;;;17.05;7.50;;;3.10;84.10;;;;;;4988202;28;20054;-69
2022/12/04 06:26:40;;;;;;;17.67;8.27;;;3.10;84.10;;;;;;4987833;28;20251;-71
2022/12/04 06:29:08;;;;;;;15.95;7.57;;;3.10;84.10;;;;;;4982198;28;20105;-70
2022/12/04 06:31:36;;;;;;;16.05;8.27;;;3.10;84.10;;;;;;4981264;28;20042;-69
2022/12/04 06:34:04;;;;;;;14.77;7.55;;;3.10;84.20;;;;;;4987157;28;20453;-70
2022/12/04 06:36:32;;;;;;;19.10;8.88;;;3.10;84.10;;;;;;4979113;28;20069;-69
2022/12/04 06:38:59;;;;;;;14.88;7.40;;;3.10;84.10;;;;;;4985679;28;20078;-69
2022/12/04 06:41:27;;;;;;;14.95;7.40;;;3.10;84.20;;;;;;4987639;28;20045;-70
2022/12/04 06:43:55;;;;;;;14.60;7.82;;;3.10;84.20;;;;;;4986966;28;20076;-71
2022/12/04 06:46:24;;;;;;;17.50;8.35;;;3.10;84.20;;;;;;4987030;28;20042;-69
2022/12/04 06:48:55;;;;;;;19.25;7.57;;;3.10;84.20;;;;;;4990285;28;20173;-70
2022/12/04 06:51:23;;;;;;;16.70;7.90;;;3.10;84.20;;;;;;4979889;28;20413;-69
2022/12/04 06:53:52;;;;;;;17.35;7.90;;;3.10;84.20;;;;;;4982739;28;20161;-69
2022/12/04 06:56:22;;;;;;;15.77;8.02;;;3.10;84.20;;;;;;4983250;28;20058;-69
2022/12/04 06:58:51;;;;;;;16.23;7.85;;;3.10;84.10;;;;;;4988612;28;20097;-70
2022/12/04 07:01:20;;;;;;;16.90;7.57;;;3.10;84.20;;;;;;4987015;28;20133;-70
2022/12/04 07:03:48;;;;;;;18.92;7.78;;;3.10;84.10;;;;;;4987301;28;20053;-70
2022/12/04 07:06:18;;;;;;;16.15;8.02;;;3.10;84.20;;;;;;4970546;28;20458;-69
2022/12/04 07:08:47;;;;;;;15.25;7.65;;;3.10;84.20;;;;;;4980508;28;20045;-69
2022/12/04 07:11:15;;;;;;;17.13;8.10;;;3.10;84.20;;;;;;4988281;28;20133;-70
2022/12/04 07:13:42;;;;;;;17.73;7.97;;;3.10;84.10;;;;;;4971908;28;20072;-70
2022/12/04 07:16:12;;;;;;;15.90;7.45;;;3.10;84.10;;;;;;4997315;28;20444;-70
2022/12/04 07:18:39;;;;;;;15.07;7.37;;;3.10;84.20;;;;;;4997570;28;20042;-69
2022/12/04 07:21:07;;;;;;;15.60;7.07;;;3.10;84.10;;;;;;5000702;28;20473;-70
2022/12/04 07:23:36;;;;;;;15.38;6.93;;;3.10;84.10;;;;;;5001298;28;20057;-70
2022/12/04 07:26:07;;;;;;;16.38;7.78;;;3.10;84.20;;;;;;5000638;28;20077;-70
2022/12/04 07:28:35;;;;;;;15.93;7.15;;;3.10;84.20;;;;;;5001541;28;20473;-69
2022/12/04 07:31:05;;;;;;;18.55;8.45;;;3.10;84.40;;;;;;5001163;28;20480;-69
2022/12/04 07:33:33;;;;;;;18.02;8.07;;;3.10;84.30;;;;;;4989646;28;20068;-70
2022/12/04 07:36:03;;;;;;;16.50;7.57;;;3.10;84.30;;;;;;5003709;28;20046;-69
2022/12/04 07:38:31;;;;;;;15.23;7.57;;;3.20;84.20;;;;;;5000579;28;20054;-70
2022/12/04 07:41:00;;;;;;;15.25;7.45;;;3.10;84.30;;;;;;4987200;28;20049;-70
2022/12/04 07:43:29;;;;;;;15.23;7.63;;;3.20;84.30;;;;;;5002976;28;20047;-71
2022/12/04 07:45:57;;;;;;;16.90;8.20;;;3.10;84.30;;;;;;4991696;28;20118;-71
2022/12/04 07:48:24;;;;;;;18.10;7.47;;;3.20;84.50;;;;;;5003507;28;20073;-70
2022/12/04 07:51:01;;;;;;;14.82;7.65;;;3.20;84.50;;;;;;4999000;28;20137;-69
2022/12/04 07:53:28;;;;;;;17.88;7.78;;;3.20;84.50;;;;;;5000296;28;20132;-69
2022/12/04 07:55:55;;;;;;;15.75;8.02;;;3.20;84.50;;;;;;4998546;28;20053;-70
2022/12/04 07:58:23;;;;;;;16.70;8.40;;;3.20;84.50;;;;;;5002848;28;20160;-69
2022/12/04 08:00:51;;;;;;;15.60;7.43;;;3.20;84.40;;;;;;4991458;28;20405;-69
2022/12/04 08:03:18;;;;;;;16.80;7.40;;;3.20;84.40;;;;;;4997422;28;20052;-70
2022/12/04 08:05:45;;;;;;;18.83;8.32;;;3.20;84.50;;;;;;4996329;28;20381;-72
2022/12/04 08:08:12;;;;;;;15.25;8.30;;;3.30;84.50;;;;;;4996373;28;20047;-70
2022/12/04 08:10:40;;;;;;;15.63;7.85;;;3.20;84.60;;;;;;4995466;28;20057;-69
2022/12/04 08:13:07;;;;;;;18.42;9.02;;;3.30;84.50;;;;;;5001531;28;20085;-70
2022/12/04 08:15:35;;;;;;;19.65;8.70;;;3.30;84.40;;;;;;5004294;28;20072;-71
2022/12/04 08:18:02;;;;;;;17.10;7.80;;;3.30;84.40;;;;;;4994980;28;20050;-72
2022/12/04 08:20:30;;;;;;;16.75;7.93;;;3.30;84.30;;;;;;5002253;28;20513;-73
2022/12/04 08:22:57;;;;;;;15.38;7.15;;;3.30;84.40;;;;;;4997707;28;20104;-72
2022/12/04 08:25:24;;;;;;;15.60;7.70;;;3.30;84.50;;;;;;5003342;28;20063;-71
2022/12/04 08:27:51;;;;;;;17.80;7.68;;;3.30;84.40;;;;;;5003047;28;20042;-69
2022/12/04 08:30:19;;;;;;;14.95;6.88;;;3.30;84.40;;;;;;5003580;28;20049;-70
2022/12/04 08:32:48;;;;;;;18.95;8.45;;;3.30;84.40;;;;;;5004938;28;20038;-70
2022/12/04 08:35:15;;;;;;;17.45;8.02;;;3.30;84.40;;;;;;5005482;28;20049;-70
2022/12/04 08:37:42;;;;;;;14.85;7.70;;;3.30;84.40;;;;;;5004921;28;20046;-70
2022/12/04 08:40:11;;;;;;;17.35;8.13;;;3.30;84.30;;;;;;5002983;28;20066;-71
2022/12/04 08:42:38;;;;;;;17.17;8.30;;;3.30;84.30;;;;;;5005068;28;20140;-70
2022/12/04 08:45:07;;;;;;;16.98;7.90;;;3.40;84.40;;;;;;5003407;28;20476;-69
2022/12/04 08:47:34;;;;;;;19.58;7.95;;;3.40;84.30;;;;;;5007637;28;20480;-69
2022/12/04 08:50:03;;;;;;;15.45;8.00;;;3.40;84.20;;;;;;5005201;28;20057;-70
2022/12/04 08:52:30;;;;;;;18.95;9.00;;;3.40;84.20;;;;;;5003768;28;20178;-71
2022/12/04 08:54:58;;;;;;;17.67;8.27;;;3.40;84.20;;;;;;5004983;28;20049;-70
2022/12/04 08:57:25;;;;;;;16.67;7.55;;;3.40;84.20;;;;;;5003212;28;20137;-70
2022/12/04 08:59:52;;;;;;;17.98;7.88;;;3.40;84.10;;;;;;4994523;28;20070;-69
2022/12/04 09:02:19;;;;;;;16.20;7.93;;;3.40;84.20;;;;;;5005771;28;20093;-69
2022/12/04 09:04:46;;;;;;;16.55;7.85;;;3.40;84.10;;;;;;5003634;28;20049;-71
2022/12/04 09:07:14;;;;;;;16.38;8.63;;;3.40;84.00;;;;;;5004664;28;20054;-69
2022/12/04 09:09:41;;;;;;;17.88;8.43;;;3.40;83.80;;;;;;4997864;28;20500;-68
2022/12/04 09:12:08;;;;;;;18.23;8.48;;;3.40;83.80;;;;;;5001628;28;20045;-71
2022/12/04 09:14:35;;;;;;;16.30;7.55;;;3.40;83.90;;;;;;5001117;28;20116;-69
2022/12/04 09:17:03;;;;;;;19.00;8.90;;;3.40;84.00;;;;;;4995582;28;20050;-69
2022/12/04 09:19:31;;;;;;;15.40;7.95;;;3.40;84.00;;;;;;5006109;28;20109;-70
2022/12/04 09:21:58;;;;;;;17.20;8.73;;;3.40;84.00;;;;;;5006102;28;20041;-70
2022/12/04 09:24:27;;;;;;;22.02;8.65;;;3.50;84.00;;;;;;5000256;28;20072;-70
2022/12/04 09:26:54;;;;;;;17.95;8.77;;;3.50;83.90;;;;;;5006867;28;20054;-69
2022/12/04 09:29:21;;;;;;;16.35;8.70;;;3.60;83.70;;;;;;4996377;28;20096;-69
2022/12/04 09:31:48;;;;;;;19.33;9.52;;;3.50;83.70;;;;;;5000955;28;20141;-68
2022/12/04 09:34:15;;;;;;;19.67;8.02;;;3.60;83.80;;;;;;5001403;28;20172;-69
2022/12/04 09:36:42;;;;;;;20.42;9.18;;;3.60;83.80;;;;;;4996988;28;20481;-69
2022/12/04 09:39:10;;;;;;;18.90;9.35;;;3.60;83.80;;;;;;5003488;28;20223;-69
2022/12/04 09:42:05;;;;;;;17.63;8.40;;;3.60;83.90;;;;;;4997665;28;20407;-68
2022/12/04 09:44:36;;;;;;;16.42;9.00;;;3.60;83.90;;;;;;5008086;28;20508;-68
2022/12/04 09:47:07;;;;;;;19.70;9.05;;;3.70;83.70;;;;;;5006120;28;20038;-69
2022/12/04 09:49:38;;;;;;;16.25;8.88;;;3.70;83.80;;;;;;5009018;28;20050;-68
2022/12/04 09:52:13;;;;;;;20.15;9.52;;;3.70;83.70;;;;;;5007121;28;20054;-70
2022/12/04 09:54:43;;;;;;;20.10;9.20;;;3.70;83.80;;;;;;5005127;28;20133;-70
2022/12/04 09:57:16;;;;;;;18.48;8.82;;;3.70;83.80;;;;;;5004649;28;20046;-68
2022/12/04 09:59:44;;;;;;;19.65;8.75;;;3.70;83.80;;;;;;5002369;28;21203;-69
2022/12/04 10:02:27;;;;;;;17.98;8.65;;;3.70;83.80;;;;;;4997714;28;20061;-69
2022/12/04 10:04:55;;;;;;;18.90;8.40;;;3.70;83.70;;;;;;4986033;28;20172;-71
2022/12/04 10:07:28;;;;;;;18.08;8.75;;;3.70;83.70;;;;;;5007192;28;20042;-70
2022/12/04 10:10:02;;;;;;;19.83;9.55;;;3.70;83.70;;;;;;5003131;28;20053;-70
2022/12/04 10:12:43;;;;;;;19.67;9.65;;;3.70;83.80;;;;;;5008449;28;20064;-70
2022/12/04 10:15:27;;;;;;;18.38;8.10;;;3.70;83.70;;;;;;5004739;28;20181;-70
2022/12/04 10:18:14;;;;;;;18.48;8.25;;;3.70;83.60;;;;;;5006586;28;20038;-69
2022/12/04 10:20:58;;;;;;;18.15;8.80;;;3.70;83.60;;;;;;4995152;28;20051;-69
2022/12/04 10:23:36;;;;;;;17.25;8.48;;;3.80;83.50;;;;;;4996623;28;20177;-70
2022/12/04 10:26:05;;;;;;;18.85;8.77;;;3.70;83.60;;;;;;5000816;28;20393;-69
2022/12/04 10:28:37;;;;;;;17.13;8.18;;;3.80;83.60;;;;;;5006604;28;20408;-71
2022/12/04 10:31:10;;;;;;;17.73;9.10;;;3.80;83.50;;;;;;4994974;28;20535;-69
2022/12/04 10:33:41;;;;;;;15.90;7.97;;;3.80;83.40;;;;;;5006969;28;20139;-68
2022/12/04 10:36:12;;;;;;;17.02;9.30;;;3.80;83.50;;;;;;5005728;28;20142;-70
2022/12/04 10:38:44;;;;;;;20.92;8.88;;;3.90;83.50;;;;;;5007407;28;20486;-70
2022/12/04 10:41:24;;;;;;;18.15;9.00;;;3.80;83.50;;;;;;5008684;28;20042;-69
2022/12/04 10:43:53;;;;;;;19.13;9.02;;;3.90;83.50;;;;;;5012957;28;20073;-69
2022/12/04 10:46:23;;;;;;;18.70;9.88;;;3.90;83.50;;;;;;5007951;28;20045;-69
2022/12/04 10:48:53;;;;;;;17.77;9.48;;;4.00;83.40;;;;;;5012468;28;20050;-70
2022/12/04 10:51:22;;;;;;;18.37;8.37;;;4.00;83.40;;;;;;4994580;28;20141;-69
2022/12/04 10:53:50;;;;;;;18.15;9.02;;;4.10;83.30;;;;;;5007913;28;20049;-70
2022/12/04 10:56:19;;;;;;;15.95;8.35;;;4.10;83.20;;;;;;5006404;28;20129;-70
2022/12/04 10:58:57;;;;;;;18.10;10.13;;;4.10;83.10;;;;;;5008185;28;20041;-70
2022/12/04 11:01:25;;;;;;;21.63;12.20;;;4.10;83.20;;;;;;5002239;28;20050;-70
2022/12/04 11:04:00;;;;;;;23.63;12.82;;;4.10;83.00;;;;;;5000932;28;20140;-69
2022/12/04 11:06:28;;;;;;;26.52;14.57;;;4.00;82.90;;;;;;5006188;28;20125;-69
2022/12/04 11:08:56;;;;;;;31.65;17.50;;;4.00;83.10;;;;;;5003609;28;20054;-70
2022/12/04 11:11:26;;;;;;;22.25;14.13;;;4.00;83.00;;;;;;5001702;28;20125;-70
2022/12/04 11:14:06;;;;;;;20.17;11.05;;;4.00;83.00;;;;;;5003505;28;20050;-69
2022/12/04 11:16:37;;;;;;;19.10;9.55;;;4.00;82.90;;;;;;5003661;28;20719;-68
2022/12/04 11:19:19;;;;;;;17.30;8.77;;;4.10;82.90;;;;;;5006842;28;20092;-70
2022/12/04 11:21:47;;;;;;;16.30;8.82;;;4.10;82.90;;;;;;5002267;28;20489;-70
2022/12/04 11:24:21;;;;;;;16.08;8.77;;;4.10;82.90;;;;;;5002189;28;20050;-70
2022/12/04 11:26:48;;;;;;;14.65;7.63;;;4.10;82.90;;;;;;5000931;28;20065;-70
2022/12/04 11:29:19;;;;;;;15.80;7.70;;;4.10;82.90;;;;;;5005902;28;20057;-70
2022/12/04 11:31:49;;;;;;;15.68;7.95;;;4.10;82.90;;;;;;4993080;28;20554;-70
2022/12/04 11:34:19;;;;;;;;;;;4.10;82.80;;;;;;4995977;28;20532;-70
2022/12/04 11:36:51;;;;;;;15.82;7.20;;;4.10;82.70;;;;;;5004102;28;19928;-70
2022/12/04 11:39:24;;;;;;;18.05;8.63;;;4.20;82.70;;;;;;5006313;28;20145;-68
2022/12/04 11:42:00;;;;;;;14.75;7.28;;;4.20;82.80;;;;;;5001851;28;20052;-70
2022/12/04 11:44:31;;;;;;;11.77;6.65;;;4.20;82.80;;;;;;5003511;28;20064;-70
2022/12/04 11:47:01;;;;;;;15.77;7.38;;;4.20;82.70;;;;;;5006074;28;20046;-70
2022/12/04 11:49:30;;;;;;;15.63;7.65;;;4.20;82.70;;;;;;5003596;28;20422;-70
2022/12/04 11:52:09;;;;;;;16.15;8.13;;;4.20;82.80;;;;;;5000822;28;20277;-70
2022/12/04 11:54:50;;;;;;;16.15;7.47;;;4.20;83.00;;;;;;5003472;28;20052;-71
2022/12/04 11:57:26;;;;;;;17.27;8.15;;;4.20;83.00;;;;;;5009652;28;20523;-69
2022/12/04 12:00:04;;;;;;;17.48;8.57;;;4.20;82.90;;;;;;5008821;28;20062;-70
2022/12/04 12:02:57;;;;;;;14.82;7.60;;;4.10;82.80;;;;;;5003579;28;20050;-69
2022/12/04 12:05:52;;;;;;;13.57;7.68;;;4.20;82.80;;;;;;5008945;28;20125;-69
2022/12/04 12:08:28;;;;;;;14.40;7.75;;;4.20;82.80;;;;;;5007091;28;20109;-69
2022/12/04 12:11:09;;;;;;;13.63;6.85;;;4.20;82.80;;;;;;5007810;28;20046;-71
2022/12/04 12:13:49;;;;;;;14.68;7.80;;;4.20;82.80;;;;;;5007135;28;20132;-69
2022/12/04 12:16:26;;;;;;;15.03;7.40;;;4.20;82.70;;;;;;5008169;28;20089;-70
2022/12/04 12:19:11;;;;;;;14.05;7.18;;;4.30;82.80;;;;;;5003868;28;20054;-70
2022/12/04 12:21:47;;;;;;;12.63;6.72;;;4.30;82.70;;;;;;5007684;28;20053;-70
2022/12/04 12:24:23;;;;;;;15.82;7.22;;;4.30;82.70;;;;;;5009805;28;20532;-70
2022/12/04 12:27:01;;;;;;;13.45;7.22;;;4.40;82.70;;;;;;5008189;28;20477;-69
2022/12/04 12:29:46;;;;;;;15.20;7.85;;;4.30;82.60;;;;;;5005940;28;20394;-70
2022/12/04 12:32:36;;;;;;;14.90;6.75;;;4.40;82.70;;;;;;5009463;28;20508;-70
2022/12/04 12:35:05;;;;;;;13.70;7.20;;;4.30;82.70;;;;;;5007884;28;20056;-69
2022/12/04 12:37:41;;;;;;;17.90;7.85;;;4.40;82.90;;;;;;5000602;28;20052;-69
2022/12/04 12:40:15;;;;;;;13.55;6.47;;;4.30;82.80;;;;;;5009075;28;20513;-70
2022/12/04 12:42:49;;;;;;;14.88;7.50;;;4.30;82.90;;;;;;5007192;28;20182;-70
2022/12/04 12:45:26;;;;;;;17.77;8.45;;;4.30;82.80;;;;;;5005715;28;20136;-69
2022/12/04 12:47:59;;;;;;;14.48;7.88;;;4.30;82.90;;;;;;5003831;28;20061;-70
2022/12/04 12:50:32;;;;;;;15.35;7.53;;;4.30;83.10;;;;;;5006720;28;20052;-69
2022/12/04 12:53:03;;;;;;;13.68;8.00;;;4.30;82.80;;;;;;5004941;28;20136;-69
2022/12/04 12:55:33;;;;;;;;;;;4.30;82.90;;;;;;5004203;28;20069;-69
2022/12/04 12:58:09;;;;;;;14.95;6.50;;;4.30;82.90;;;;;;5007396;28;19925;-68
2022/12/04 13:00:43;;;;;;;15.48;7.72;;;4.30;82.70;;;;;;5006453;28;20068;-69
2022/12/04 13:03:25;;;;;;;15.38;7.05;;;4.30;82.90;;;;;;5004094;28;20112;-69
2022/12/04 13:05:59;;;;;;;14.15;6.85;;;4.40;82.90;;;;;;5005501;28;20408;-69
2022/12/04 13:08:30;;;;;;;16.38;7.47;;;4.40;82.90;;;;;;5004575;28;20084;-69
2022/12/04 13:11:02;;;;;;;;;;;4.40;83.00;;;;;;5004910;28;20053;-70
2022/12/04 13:13:32;;;;;;;16.15;6.82;;;4.40;83.10;;;;;;5006038;28;19921;-72
2022/12/04 13:16:05;;;;;;;12.90;6.60;;;4.40;83.10;;;;;;5004980;28;20049;-71
2022/12/04 13:18:38;;;;;;;15.43;7.30;;;4.40;83.00;;;;;;5001012;28;20270;-70